sensor_id;sensor_type;location;lat;lon;timestamp;pressure;altitude;pressure_sealevel;temperature;humidity
78407;BME280;67692;51.074;-1.790;2024-03-06T00:02:06;101314.88;;;4.05;100.00
78407;BME280;67692;51.074;-1.790;2024-03-06T00:04:33;101304.72;;;4.02;100.00
78407;BME280;67692;51.074;-1.790;2024-03-06T00:07:00;101309.13;;;3.98;100.00
78407;BME280;67692;51.074;-1.790;2024-03-06T00:09:27;101321.16;;;3.96;100.00
78407;BME280;67692;51.074;-1.790;2024-03-06T00:11:54;101303.22;;;3.96;100.00
78407;BME280;67692;51.074;-1.790;2024-03-06T00:14:22;101307.72;;;3.88;100.00
78407;BME280;67692;51.074;-1.790;2024-03-06T00:16:49;101315.34;;;3.89;100.00
78407;BME280;67692;51.074;-1.790;2024-03-06T00:19:16;101318.59;;;3.96;100.00
78407;BME280;67692;51.074;-1.790;2024-03-06T00:21:43;101316.75;;;4.00;100.00
78407;BME280;67692;51.074;-1.790;2024-03-06T00:24:11;101315.19;;;3.96;100.00
78407;BME280;67692;51.074;-1.790;2024-03-06T00:26:39;101317.06;;;3.91;100.00
78407;BME280;67692;51.074;-1.790;2024-03-06T00:29:06;101316.41;;;3.84;100.00
78407;BME280;67692;51.074;-1.790;2024-03-06T00:31:34;101319.94;;;3.80;100.00
78407;BME280;67692;51.074;-1.790;2024-03-06T00:33:59;101317.44;;;3.78;100.00
78407;BME280;67692;51.074;-1.790;2024-03-06T00:36:26;101323.31;;;3.82;100.00
78407;BME280;67692;51.074;-1.790;2024-03-06T00:38:53;101324.34;;;3.76;100.00
78407;BME280;67692;51.074;-1.790;2024-03-06T00:41:19;101318.69;;;3.65;100.00
78407;BME280;67692;51.074;-1.790;2024-03-06T00:43:46;101325.28;;;3.72;100.00
78407;BME280;67692;51.074;-1.790;2024-03-06T00:46:12;101323.72;;;3.68;100.00
78407;BME280;67692;51.074;-1.790;2024-03-06T00:48:40;101332.28;;;3.67;100.00
78407;BME280;67692;51.074;-1.790;2024-03-06T00:51:07;101328.06;;;3.66;100.00
78407;BME280;67692;51.074;-1.790;2024-03-06T00:53:34;101328.16;;;3.62;100.00
78407;BME280;67692;51.074;-1.790;2024-03-06T00:56:02;101328.31;;;3.57;100.00
78407;BME280;67692;51.074;-1.790;2024-03-06T00:58:28;101318.38;;;3.48;100.00
78407;BME280;67692;51.074;-1.790;2024-03-06T01:00:55;101321.97;;;3.41;100.00
78407;BME280;67692;51.074;-1.790;2024-03-06T01:03:23;101318.38;;;3.48;100.00
78407;BME280;67692;51.074;-1.790;2024-03-06T01:05:51;101328.56;;;3.49;100.00
78407;BME280;67692;51.074;-1.790;2024-03-06T01:08:18;101323.44;;;3.49;100.00
78407;BME280;67692;51.074;-1.790;2024-03-06T01:10:45;101326.00;;;3.49;100.00
78407;BME280;67692;51.074;-1.790;2024-03-06T01:13:12;101329.44;;;3.48;100.00
78407;BME280;67692;51.074;-1.790;2024-03-06T01:15:38;101339.94;;;3.39;100.00
78407;BME280;67692;51.074;-1.790;2024-03-06T01:18:05;101331.66;;;3.29;100.00
78407;BME280;67692;51.074;-1.790;2024-03-06T01:20:32;101335.16;;;3.27;100.00
78407;BME280;67692;51.074;-1.790;2024-03-06T01:23:00;101331.63;;;3.31;100.00
78407;BME280;67692;51.074;-1.790;2024-03-06T01:25:26;101333.34;;;3.31;100.00
78407;BME280;67692;51.074;-1.790;2024-03-06T01:27:53;101335.31;;;3.22;100.00
78407;BME280;67692;51.074;-1.790;2024-03-06T01:30:20;101335.47;;;3.16;100.00
78407;BME280;67692;51.074;-1.790;2024-03-06T01:32:46;101333.00;;;3.13;100.00
78407;BME280;67692;51.074;-1.790;2024-03-06T01:35:13;101328.16;;;3.04;100.00
78407;BME280;67692;51.074;-1.790;2024-03-06T01:37:40;101336.84;;;2.97;100.00
78407;BME280;67692;51.074;-1.790;2024-03-06T01:40:10;101341.00;;;3.01;100.00
78407;BME280;67692;51.074;-1.790;2024-03-06T01:42:37;101340.81;;;3.09;100.00
78407;BME280;67692;51.074;-1.790;2024-03-06T01:45:05;101331.56;;;3.03;100.00
78407;BME280;67692;51.074;-1.790;2024-03-06T01:47:32;101331.66;;;3.00;100.00
78407;BME280;67692;51.074;-1.790;2024-03-06T01:49:59;101331.72;;;2.97;100.00
78407;BME280;67692;51.074;-1.790;2024-03-06T01:52:27;101331.78;;;2.95;100.00
78407;BME280;67692;51.074;-1.790;2024-03-06T01:54:53;101327.38;;;3.01;100.00
78407;BME280;67692;51.074;-1.790;2024-03-06T01:57:23;101334.84;;;3.08;100.00
78407;BME280;67692;51.074;-1.790;2024-03-06T01:59:50;101334.75;;;3.11;100.00
78407;BME280;67692;51.074;-1.790;2024-03-06T02:02:16;101334.66;;;3.14;100.00
78407;BME280;67692;51.074;-1.790;2024-03-06T02:04:43;101340.75;;;3.10;100.00
78407;BME280;67692;51.074;-1.790;2024-03-06T02:07:10;101342.56;;;3.07;100.00
78407;BME280;67692;51.074;-1.790;2024-03-06T02:09:37;101346.06;;;3.04;100.00
78407;BME280;67692;51.074;-1.790;2024-03-06T02:12:05;101338.53;;;2.98;100.00
78407;BME280;67692;51.074;-1.790;2024-03-06T02:14:35;101339.31;;;3.00;100.00
78407;BME280;67692;51.074;-1.790;2024-03-06T02:17:01;101339.31;;;3.00;100.00
78407;BME280;67692;51.074;-1.790;2024-03-06T02:19:37;101339.63;;;2.89;100.00
78407;BME280;67692;51.074;-1.790;2024-03-06T02:22:06;101342.19;;;2.88;100.00
78407;BME280;67692;51.074;-1.790;2024-03-06T02:24:33;101333.81;;;2.83;100.00
78407;BME280;67692;51.074;-1.790;2024-03-06T02:27:00;101331.19;;;2.86;100.00
78407;BME280;67692;51.074;-1.790;2024-03-06T02:29:26;101328.03;;;2.76;100.00
78407;BME280;67692;51.074;-1.790;2024-03-06T02:31:53;101326.38;;;2.75;100.00
78407;BME280;67692;51.074;-1.790;2024-03-06T02:34:19;101327.13;;;2.79;100.00
78407;BME280;67692;51.074;-1.790;2024-03-06T02:36:46;101327.22;;;2.76;100.00
78407;BME280;67692;51.074;-1.790;2024-03-06T02:39:14;101325.50;;;2.76;100.00
78407;BME280;67692;51.074;-1.790;2024-03-06T02:41:41;101328.88;;;2.77;100.00
78407;BME280;67692;51.074;-1.790;2024-03-06T02:44:07;101328.94;;;2.74;100.00
78407;BME280;67692;51.074;-1.790;2024-03-06T02:46:34;101325.72;;;2.67;100.00
78407;BME280;67692;51.074;-1.790;2024-03-06T02:49:01;101327.53;;;2.63;100.00
78407;BME280;67692;51.074;-1.790;2024-03-06T02:51:28;101321.53;;;2.64;100.00
78407;BME280;67692;51.074;-1.790;2024-03-06T02:53:54;101319.84;;;2.63;100.00
78407;BME280;67692;51.074;-1.790;2024-03-06T02:56:22;101323.34;;;2.61;100.00
78407;BME280;67692;51.074;-1.790;2024-03-06T02:58:49;101318.28;;;2.58;100.00
78407;BME280;67692;51.074;-1.790;2024-03-06T03:01:15;101317.53;;;2.54;100.00
78407;BME280;67692;51.074;-1.790;2024-03-06T03:03:42;101319.13;;;2.58;100.00
78407;BME280;67692;51.074;-1.790;2024-03-06T03:06:10;101319.94;;;2.59;100.00
78407;BME280;67692;51.074;-1.790;2024-03-06T03:08:36;101316.00;;;2.47;100.00
78407;BME280;67692;51.074;-1.790;2024-03-06T03:11:03;101310.81;;;2.50;100.00
78407;BME280;67692;51.074;-1.790;2024-03-06T03:13:31;101309.16;;;2.49;100.00
78407;BME280;67692;51.074;-1.790;2024-03-06T03:15:58;101309.16;;;2.49;100.00
78407;BME280;67692;51.074;-1.790;2024-03-06T03:18:24;101314.25;;;2.49;100.00
78407;BME280;67692;51.074;-1.790;2024-03-06T03:20:51;101304.22;;;2.42;100.00
78407;BME280;67692;51.074;-1.790;2024-03-06T03:23:18;101310.16;;;2.42;100.00
78407;BME280;67692;51.074;-1.790;2024-03-06T03:25:47;101313.50;;;2.44;100.00
78407;BME280;67692;51.074;-1.790;2024-03-06T03:28:14;101315.56;;;2.30;100.00
78407;BME280;67692;51.074;-1.790;2024-03-06T03:30:43;101319.81;;;2.31;100.00
78407;BME280;67692;51.074;-1.790;2024-03-06T03:33:10;101321.66;;;2.26;100.00
78407;BME280;67692;51.074;-1.790;2024-03-06T03:35:37;101321.50;;;2.32;100.00
78407;BME280;67692;51.074;-1.790;2024-03-06T03:38:04;101323.25;;;2.30;100.00
78407;BME280;67692;51.074;-1.790;2024-03-06T03:40:31;101323.47;;;2.21;100.00
78407;BME280;67692;51.074;-1.790;2024-03-06T03:42:58;101315.34;;;2.05;100.00
78407;BME280;67692;51.074;-1.790;2024-03-06T03:45:31;101323.06;;;2.03;100.00
78407;BME280;67692;51.074;-1.790;2024-03-06T03:47:59;101322.22;;;2.03;100.00
78407;BME280;67692;51.074;-1.790;2024-03-06T03:50:27;101321.38;;;2.01;100.00
78407;BME280;67692;51.074;-1.790;2024-03-06T03:52:54;101318.44;;;2.18;100.00
78407;BME280;67692;51.074;-1.790;2024-03-06T03:55:23;101319.97;;;2.25;100.00
78407;BME280;67692;51.074;-1.790;2024-03-06T03:57:50;101321.66;;;2.26;100.00
78407;BME280;67692;51.074;-1.790;2024-03-06T04:00:18;101319.94;;;2.26;100.00
78407;BME280;67692;51.074;-1.790;2024-03-06T04:02:45;101325.06;;;2.25;100.00
78407;BME280;67692;51.074;-1.790;2024-03-06T04:05:13;101321.59;;;2.27;100.00
78407;BME280;67692;51.074;-1.790;2024-03-06T04:07:40;101323.19;;;2.33;100.00
78407;BME280;67692;51.074;-1.790;2024-03-06T04:10:07;101326.75;;;2.26;100.00
78407;BME280;67692;51.074;-1.790;2024-03-06T04:12:36;101322.56;;;2.23;100.00
78407;BME280;67692;51.074;-1.790;2024-03-06T04:15:04;101328.59;;;2.21;100.00
78407;BME280;67692;51.074;-1.790;2024-03-06T04:17:31;101328.59;;;2.21;100.00
78407;BME280;67692;51.074;-1.790;2024-03-06T04:19:58;101323.25;;;2.30;100.00
78407;BME280;67692;51.074;-1.790;2024-03-06T04:22:26;101324.16;;;2.27;100.00
78407;BME280;67692;51.074;-1.790;2024-03-06T04:24:54;101328.75;;;2.13;100.00
78407;BME280;67692;51.074;-1.790;2024-03-06T04:27:23;101333.19;;;2.06;100.00
78407;BME280;67692;51.074;-1.790;2024-03-06T04:29:50;101344.28;;;2.05;100.00
78407;BME280;67692;51.074;-1.790;2024-03-06T04:32:17;101348.06;;;1.89;100.00
78407;BME280;67692;51.074;-1.790;2024-03-06T04:34:44;101347.84;;;1.98;100.00
78407;BME280;67692;51.074;-1.790;2024-03-06T04:37:11;101353.94;;;1.93;100.00
78407;BME280;67692;51.074;-1.790;2024-03-06T04:39:39;101348.88;;;1.91;100.00
78407;BME280;67692;51.074;-1.790;2024-03-06T04:42:06;101352.16;;;1.96;100.00
78407;BME280;67692;51.074;-1.790;2024-03-06T04:44:33;101359.88;;;1.93;100.00
78407;BME280;67692;51.074;-1.790;2024-03-06T04:47:00;101364.84;;;1.99;100.00
78407;BME280;67692;51.074;-1.790;2024-03-06T04:49:26;101357.06;;;2.05;100.00
78407;BME280;67692;51.074;-1.790;2024-03-06T04:51:53;101356.03;;;2.13;100.00
78407;BME280;67692;51.074;-1.790;2024-03-06T04:54:20;101356.72;;;2.19;100.00
78407;BME280;67692;51.074;-1.790;2024-03-06T04:56:48;101359.16;;;2.24;100.00
78407;BME280;67692;51.074;-1.790;2024-03-06T04:59:14;101356.78;;;2.18;100.00
78407;BME280;67692;51.074;-1.790;2024-03-06T05:01:41;101362.84;;;2.12;100.00
78407;BME280;67692;51.074;-1.790;2024-03-06T05:04:09;101369.03;;;2.02;100.00
78407;BME280;67692;51.074;-1.790;2024-03-06T05:06:35;101366.69;;;1.93;100.00
78407;BME280;67692;51.074;-1.790;2024-03-06T05:09:02;101373.63;;;1.86;100.00
78407;BME280;67692;51.074;-1.790;2024-03-06T05:11:29;101373.59;;;1.89;100.00
78407;BME280;67692;51.074;-1.790;2024-03-06T05:13:59;101376.19;;;1.86;100.00
78407;BME280;67692;51.074;-1.790;2024-03-06T05:16:26;101370.31;;;1.83;100.00
78407;BME280;67692;51.074;-1.790;2024-03-06T05:18:53;101362.69;;;1.81;100.00
78407;BME280;67692;51.074;-1.790;2024-03-06T05:21:20;101371.22;;;1.80;100.00
78407;BME280;67692;51.074;-1.790;2024-03-06T05:23:47;101376.25;;;1.83;100.00
78407;BME280;67692;51.074;-1.790;2024-03-06T05:26:14;101372.03;;;1.82;100.00
78407;BME280;67692;51.074;-1.790;2024-03-06T05:28:41;101373.69;;;1.85;100.00
78407;BME280;67692;51.074;-1.790;2024-03-06T05:31:16;101374.72;;;1.76;100.00
78407;BME280;67692;51.074;-1.790;2024-03-06T05:33:44;101376.38;;;1.78;100.00
78407;BME280;67692;51.074;-1.790;2024-03-06T05:36:11;101379.75;;;1.79;100.00
78407;BME280;67692;51.074;-1.790;2024-03-06T05:38:40;101382.41;;;1.76;100.00
78407;BME280;67692;51.074;-1.790;2024-03-06T05:41:06;101389.97;;;1.79;100.00
78407;BME280;67692;51.074;-1.790;2024-03-06T05:43:33;101390.09;;;1.74;100.00
78407;BME280;67692;51.074;-1.790;2024-03-06T05:46:00;101393.47;;;1.75;100.00
78407;BME280;67692;51.074;-1.790;2024-03-06T05:48:28;101398.69;;;1.69;100.00
78407;BME280;67692;51.074;-1.790;2024-03-06T05:50:55;101396.28;;;1.63;100.00
78407;BME280;67692;51.074;-1.790;2024-03-06T05:53:22;101397.81;;;1.70;100.00
78407;BME280;67692;51.074;-1.790;2024-03-06T05:55:48;101402.88;;;1.71;100.00
78407;BME280;67692;51.074;-1.790;2024-03-06T05:58:15;101408.78;;;1.75;100.00
78407;BME280;67692;51.074;-1.790;2024-03-06T06:00:42;101395.69;;;1.90;100.00
78407;BME280;67692;51.074;-1.790;2024-03-06T06:03:09;101401.75;;;1.85;100.00
78407;BME280;67692;51.074;-1.790;2024-03-06T06:05:38;101402.56;;;1.88;100.00
78407;BME280;67692;51.074;-1.790;2024-03-06T06:08:05;101406.66;;;1.95;100.00
78407;BME280;67692;51.074;-1.790;2024-03-06T06:10:32;101395.44;;;2.01;100.00
78407;BME280;67692;51.074;-1.790;2024-03-06T06:12:58;101405.84;;;1.93;100.00
78407;BME280;67692;51.074;-1.790;2024-03-06T06:15:25;101399.66;;;2.03;100.00
78407;BME280;67692;51.074;-1.790;2024-03-06T06:17:52;101418.66;;;1.92;100.00
78407;BME280;67692;51.074;-1.790;2024-03-06T06:20:18;101416.94;;;1.92;100.00
78407;BME280;67692;51.074;-1.790;2024-03-06T06:22:46;101409.34;;;1.89;100.00
78407;BME280;67692;51.074;-1.790;2024-03-06T06:25:13;101413.69;;;1.84;100.00
78407;BME280;67692;51.074;-1.790;2024-03-06T06:27:41;101412.13;;;1.78;100.00
78407;BME280;67692;51.074;-1.790;2024-03-06T06:30:08;101414.09;;;1.66;100.00
78407;BME280;67692;51.074;-1.790;2024-03-06T06:32:36;101425.03;;;1.71;100.00
78407;BME280;67692;51.074;-1.790;2024-03-06T06:35:04;101421.81;;;1.63;100.00
78407;BME280;67692;51.074;-1.790;2024-03-06T06:37:31;101421.09;;;1.55;100.00
78407;BME280;67692;51.074;-1.790;2024-03-06T06:39:59;101428.91;;;1.48;100.00
78407;BME280;67692;51.074;-1.790;2024-03-06T06:42:28;101429.88;;;1.41;100.00
78407;BME280;67692;51.074;-1.790;2024-03-06T06:44:55;101429.13;;;1.36;100.00
78407;BME280;67692;51.074;-1.790;2024-03-06T06:47:21;101430.06;;;1.32;100.00
78407;BME280;67692;51.074;-1.790;2024-03-06T06:49:48;101437.66;;;1.35;100.00
78407;BME280;67692;51.074;-1.790;2024-03-06T06:52:15;101430.81;;;1.37;100.00
78407;BME280;67692;51.074;-1.790;2024-03-06T06:54:42;101433.50;;;1.30;100.00
78407;BME280;67692;51.074;-1.790;2024-03-06T06:57:10;101429.19;;;1.33;100.00
78407;BME280;67692;51.074;-1.790;2024-03-06T06:59:37;101430.69;;;1.45;100.00
78407;BME280;67692;51.074;-1.790;2024-03-06T07:02:04;101423.84;;;1.45;100.00
78407;BME280;67692;51.074;-1.790;2024-03-06T07:04:31;101419.34;;;1.57;100.00
78407;BME280;67692;51.074;-1.790;2024-03-06T07:06:58;101426.88;;;1.64;100.00
78407;BME280;67692;51.074;-1.790;2024-03-06T07:09:24;101430.38;;;1.59;100.00
78407;BME280;67692;51.074;-1.790;2024-03-06T07:11:54;101430.41;;;1.57;100.00
78407;BME280;67692;51.074;-1.790;2024-03-06T07:14:22;101436.44;;;1.53;100.00
78407;BME280;67692;51.074;-1.790;2024-03-06T07:16:49;101437.22;;;1.57;100.00
78407;BME280;67692;51.074;-1.790;2024-03-06T07:19:15;101447.34;;;1.63;100.00
78407;BME280;67692;51.074;-1.790;2024-03-06T07:21:43;101440.34;;;1.71;100.00
78407;BME280;67692;51.074;-1.790;2024-03-06T07:24:09;101442.91;;;1.71;100.00
78407;BME280;67692;51.074;-1.790;2024-03-06T07:26:36;101438.50;;;1.79;100.00
78407;BME280;67692;51.074;-1.790;2024-03-06T07:29:03;101443.34;;;1.91;100.00
78407;BME280;67692;51.074;-1.790;2024-03-06T07:31:31;101434.75;;;1.95;100.00
78407;BME280;67692;51.074;-1.790;2024-03-06T07:33:58;101441.78;;;1.84;100.00
78407;BME280;67692;51.074;-1.790;2024-03-06T07:36:25;101442.16;;;1.66;100.00
78407;BME280;67692;51.074;-1.790;2024-03-06T07:38:51;101445.44;;;1.71;100.00
78407;BME280;67692;51.074;-1.790;2024-03-06T07:41:18;101447.25;;;1.66;100.00
78407;BME280;67692;51.074;-1.790;2024-03-06T07:43:45;101445.50;;;1.68;100.00
78407;BME280;67692;51.074;-1.790;2024-03-06T07:46:12;101450.56;;;1.71;100.00
78407;BME280;67692;51.074;-1.790;2024-03-06T07:48:41;101459.03;;;1.73;100.00
78407;BME280;67692;51.074;-1.790;2024-03-06T07:51:09;101461.47;;;1.79;100.00
78407;BME280;67692;51.074;-1.790;2024-03-06T07:53:35;101465.56;;;1.86;100.00
78407;BME280;67692;51.074;-1.790;2024-03-06T07:56:02;101467.25;;;1.89;100.00
78407;BME280;67692;51.074;-1.790;2024-03-06T07:58:29;101463.00;;;1.86;100.00
78407;BME280;67692;51.074;-1.790;2024-03-06T08:00:56;101462.97;;;1.89;100.00
78407;BME280;67692;51.074;-1.790;2024-03-06T08:03:24;101468.09;;;1.88;100.00
78407;BME280;67692;51.074;-1.790;2024-03-06T08:05:52;101472.31;;;1.90;100.00
78407;BME280;67692;51.074;-1.790;2024-03-06T08:08:19;101468.00;;;1.92;100.00
78407;BME280;67692;51.074;-1.790;2024-03-06T08:10:46;101473.88;;;1.96;100.00
78407;BME280;67692;51.074;-1.790;2024-03-06T08:13:13;101483.13;;;2.01;100.00
78407;BME280;67692;51.074;-1.790;2024-03-06T08:15:40;101483.22;;;1.97;100.00
78407;BME280;67692;51.074;-1.790;2024-03-06T08:18:09;101487.34;;;2.02;100.00
78407;BME280;67692;51.074;-1.790;2024-03-06T08:20:36;101485.03;;;1.92;100.00
78407;BME280;67692;51.074;-1.790;2024-03-06T08:23:04;101485.09;;;1.89;100.00
78407;BME280;67692;51.074;-1.790;2024-03-06T08:25:31;101488.56;;;1.85;100.00
78407;BME280;67692;51.074;-1.790;2024-03-06T08:27:58;101486.88;;;1.85;100.00
78407;BME280;67692;51.074;-1.790;2024-03-06T08:30:25;101486.81;;;1.87;100.00
78407;BME280;67692;51.074;-1.790;2024-03-06T08:32:52;101484.91;;;1.98;100.00
78407;BME280;67692;51.074;-1.790;2024-03-06T08:35:18;101482.44;;;1.93;100.00
78407;BME280;67692;51.074;-1.790;2024-03-06T08:37:46;101487.34;;;2.02;100.00
78407;BME280;67692;51.074;-1.790;2024-03-06T08:40:15;101489.75;;;2.10;100.00
78407;BME280;67692;51.074;-1.790;2024-03-06T08:42:43;101498.19;;;2.14;100.00
78407;BME280;67692;51.074;-1.790;2024-03-06T08:45:10;101487.06;;;2.16;100.00
78407;BME280;67692;51.074;-1.790;2024-03-06T08:47:37;101494.47;;;2.28;100.00
78407;BME280;67692;51.074;-1.790;2024-03-06T08:50:04;101495.13;;;2.38;100.00
78407;BME280;67692;51.074;-1.790;2024-03-06T08:52:33;101501.97;;;2.36;100.00
78407;BME280;67692;51.074;-1.790;2024-03-06T08:55:00;101506.19;;;2.38;100.00
78407;BME280;67692;51.074;-1.790;2024-03-06T08:57:28;101504.13;;;2.54;100.00
78407;BME280;67692;51.074;-1.790;2024-03-06T08:59:56;101498.88;;;2.60;100.00
78407;BME280;67692;51.074;-1.790;2024-03-06T09:02:23;101499.66;;;2.64;100.00
78407;BME280;67692;51.074;-1.790;2024-03-06T09:04:51;101497.81;;;2.69;100.00
78407;BME280;67692;51.074;-1.790;2024-03-06T09:07:18;101500.94;;;2.82;100.00
78407;BME280;67692;51.074;-1.790;2024-03-06T09:09:49;101499.09;;;2.87;100.00
78407;BME280;67692;51.074;-1.790;2024-03-06T09:12:17;101510.88;;;2.94;100.00
78407;BME280;67692;51.074;-1.790;2024-03-06T09:14:45;101514.94;;;3.01;100.00
78407;BME280;67692;51.074;-1.790;2024-03-06T09:17:12;101518.38;;;3.00;100.00
78407;BME280;67692;51.074;-1.790;2024-03-06T09:19:40;101514.81;;;3.07;100.00
78407;BME280;67692;51.074;-1.790;2024-03-06T09:22:07;101524.09;;;3.11;100.00
78407;BME280;67692;51.074;-1.790;2024-03-06T09:24:34;101523.28;;;3.09;100.00
78407;BME280;67692;51.074;-1.790;2024-03-06T09:27:03;101520.53;;;3.17;100.00
78407;BME280;67692;51.074;-1.790;2024-03-06T09:29:30;101524.66;;;3.22;100.00
78407;BME280;67692;51.074;-1.790;2024-03-06T09:31:58;101520.50;;;3.18;100.00
78407;BME280;67692;51.074;-1.790;2024-03-06T09:34:25;101519.31;;;3.32;100.00
78407;BME280;67692;51.074;-1.790;2024-03-06T09:36:52;101511.53;;;3.36;100.00
78407;BME280;67692;51.074;-1.790;2024-03-06T09:39:19;101514.75;;;3.43;100.00
78407;BME280;67692;51.074;-1.790;2024-03-06T09:41:48;101512.31;;;3.38;100.00
78407;BME280;67692;51.074;-1.790;2024-03-06T09:44:15;101523.22;;;3.45;100.00
78407;BME280;67692;51.074;-1.790;2024-03-06T09:46:43;101518.81;;;3.51;100.00
78407;BME280;67692;51.074;-1.790;2024-03-06T09:49:13;101521.22;;;3.56;100.00
78407;BME280;67692;51.074;-1.790;2024-03-06T09:51:42;101532.16;;;3.63;100.00
78407;BME280;67692;51.074;-1.790;2024-03-06T09:54:11;101533.47;;;3.77;100.00
78407;BME280;67692;51.074;-1.790;2024-03-06T09:56:41;101534.88;;;3.87;100.00
78407;BME280;67692;51.074;-1.790;2024-03-06T09:59:07;101534.78;;;3.92;100.00
78407;BME280;67692;51.074;-1.790;2024-03-06T10:01:35;101536.19;;;4.02;100.00
78407;BME280;67692;51.074;-1.790;2024-03-06T10:04:19;101535.25;;;4.05;100.00
78407;BME280;67692;51.074;-1.790;2024-03-06T10:06:46;101537.56;;;4.14;100.00
78407;BME280;67692;51.074;-1.790;2024-03-06T10:09:16;101539.19;;;4.16;100.00
78407;BME280;67692;51.074;-1.790;2024-03-06T10:11:43;101537.56;;;4.14;100.00
78407;BME280;67692;51.074;-1.790;2024-03-06T10:14:10;101544.25;;;4.20;100.00
78407;BME280;67692;51.074;-1.790;2024-03-06T10:16:37;101541.50;;;4.26;100.00
78407;BME280;67692;51.074;-1.790;2024-03-06T10:19:17;101544.66;;;4.35;100.00
78407;BME280;67692;51.074;-1.790;2024-03-06T10:21:46;101540.06;;;4.45;100.00
78407;BME280;67692;51.074;-1.790;2024-03-06T10:24:18;101546.81;;;4.49;100.00
78407;BME280;67692;51.074;-1.790;2024-03-06T10:26:45;101552.78;;;4.50;100.00
78407;BME280;67692;51.074;-1.790;2024-03-06T10:29:15;101550.16;;;4.51;100.00
78407;BME280;67692;51.074;-1.790;2024-03-06T10:31:47;101552.47;;;4.59;100.00
78407;BME280;67692;51.074;-1.790;2024-03-06T10:34:15;101548.81;;;4.67;100.00
78407;BME280;67692;51.074;-1.790;2024-03-06T10:36:44;101546.97;;;4.71;100.00
78407;BME280;67692;51.074;-1.790;2024-03-06T10:39:11;101547.66;;;4.76;100.00
78407;BME280;67692;51.074;-1.790;2024-03-06T10:41:40;101553.50;;;4.81;100.00
78407;BME280;67692;51.074;-1.790;2024-03-06T10:44:11;101551.53;;;4.89;100.00
78407;BME280;67692;51.074;-1.790;2024-03-06T10:46:43;101550.50;;;4.95;100.00
78407;BME280;67692;51.074;-1.790;2024-03-06T10:49:11;101541.94;;;4.96;100.00
78407;BME280;67692;51.074;-1.790;2024-03-06T10:51:40;101542.31;;;5.10;100.00
78407;BME280;67692;51.074;-1.790;2024-03-06T10:54:10;101548.88;;;5.19;100.00
78407;BME280;67692;51.074;-1.790;2024-03-06T10:56:39;101552.03;;;5.27;100.00
78407;BME280;67692;51.074;-1.790;2024-03-06T10:59:09;101550.75;;;5.40;100.00
78407;BME280;67692;51.074;-1.790;2024-03-06T11:01:37;101553.78;;;5.51;100.00
78407;BME280;67692;51.074;-1.790;2024-03-06T11:04:05;101552.47;;;5.64;100.00
78407;BME280;67692;51.074;-1.790;2024-03-06T11:06:32;101556.44;;;5.73;100.00
78407;BME280;67692;51.074;-1.790;2024-03-06T11:08:59;101560.44;;;5.82;100.00
78407;BME280;67692;51.074;-1.790;2024-03-06T11:11:28;101552.41;;;5.91;100.00
78407;BME280;67692;51.074;-1.790;2024-03-06T11:14:00;101560.59;;;6.02;100.00
78407;BME280;67692;51.074;-1.790;2024-03-06T11:16:28;101559.38;;;6.12;100.00
78407;BME280;67692;51.074;-1.790;2024-03-06T11:19:05;101552.88;;;6.25;100.00
78407;BME280;67692;51.074;-1.790;2024-03-06T11:21:33;101555.22;;;6.32;100.00
78407;BME280;67692;51.074;-1.790;2024-03-06T11:24:13;101552.44;;;6.38;100.00
78407;BME280;67692;51.074;-1.790;2024-03-06T11:26:45;101558.56;;;6.57;100.00
78407;BME280;67692;51.074;-1.790;2024-03-06T11:29:15;101556.28;;;6.71;100.00
78407;BME280;67692;51.074;-1.790;2024-03-06T11:31:57;101562.91;;;6.77;100.00
78407;BME280;67692;51.074;-1.790;2024-03-06T11:34:26;101542.09;;;6.83;100.00
78407;BME280;67692;51.074;-1.790;2024-03-06T11:36:53;101547.84;;;6.90;100.00
78407;BME280;67692;51.074;-1.790;2024-03-06T11:39:20;101549.50;;;6.91;100.00
78407;BME280;67692;51.074;-1.790;2024-03-06T11:41:50;101548.31;;;6.99;100.00
78407;BME280;67692;51.074;-1.790;2024-03-06T11:44:18;101556.69;;;7.04;100.00
78407;BME280;67692;51.074;-1.790;2024-03-06T11:46:47;101555.63;;;7.10;100.00
78407;BME280;67692;51.074;-1.790;2024-03-06T11:49:15;101552.56;;;7.21;100.00
78407;BME280;67692;51.074;-1.790;2024-03-06T11:51:44;101555.88;;;7.44;100.00
78407;BME280;67692;51.074;-1.790;2024-03-06T11:54:11;101561.75;;;7.48;100.00
78407;BME280;67692;51.074;-1.790;2024-03-06T11:56:39;101548.97;;;7.65;100.00
78407;BME280;67692;51.074;-1.790;2024-03-06T11:59:07;101553.28;;;7.65;100.00
78407;BME280;67692;51.074;-1.790;2024-03-06T12:01:35;101552.38;;;7.66;100.00
78407;BME280;67692;51.074;-1.790;2024-03-06T12:04:02;101552.28;;;7.69;100.00
78407;BME280;67692;51.074;-1.790;2024-03-06T12:06:29;101548.72;;;7.71;100.00
78407;BME280;67692;51.074;-1.790;2024-03-06T12:08:55;101554.56;;;7.75;99.20
78407;BME280;67692;51.074;-1.790;2024-03-06T12:11:23;101562.94;;;7.80;100.00
78407;BME280;67692;51.074;-1.790;2024-03-06T12:13:51;101552.59;;;7.82;100.00
78407;BME280;67692;51.074;-1.790;2024-03-06T12:16:19;101550.56;;;7.88;100.00
78407;BME280;67692;51.074;-1.790;2024-03-06T12:18:45;101559.59;;;7.98;97.57
78407;BME280;67692;51.074;-1.790;2024-03-06T12:21:13;101551.97;;;7.95;98.48
78407;BME280;67692;51.074;-1.790;2024-03-06T12:23:39;101553.16;;;8.07;96.27
78407;BME280;67692;51.074;-1.790;2024-03-06T12:26:08;101549.19;;;8.19;96.63
78407;BME280;67692;51.074;-1.790;2024-03-06T12:28:36;101557.03;;;8.36;94.82
78407;BME280;67692;51.074;-1.790;2024-03-06T12:31:03;101550.06;;;8.38;96.05
78407;BME280;67692;51.074;-1.790;2024-03-06T12:33:32;101550.22;;;8.35;94.01
78407;BME280;67692;51.074;-1.790;2024-03-06T12:36:04;101553.69;;;8.34;96.45
78407;BME280;67692;51.074;-1.790;2024-03-06T12:38:31;101552.97;;;8.30;98.39
78407;BME280;67692;51.074;-1.790;2024-03-06T12:40:57;101547.19;;;8.25;96.46
78407;BME280;67692;51.074;-1.790;2024-03-06T12:43:24;101543.63;;;8.28;95.61